Worth, New York
Current Conditions -  °F | °C
As of 10:56 AM on Tuesday 21 Oct 2014 (Local Time) from KART Reporting Station
Light Rain Light Rain  
Wind Chill: 52°   Ceiling: 5000
Heat Index: 52°   Visibility: 10mi
Dew Point: 45°   Wind: 10mph
Humidity: 77%   Direction: 40°NE
Pressure: 29.88"   Gusts: NA
Location:  43.7413°N, 75.859°W
Report Text: KART 211456Z AUTO 04009KT 10SM -RA OVC050 11/07 A2988 RMK AO2 SLP118 P0001 60002 T01110072 51011
Loading
Personal Weather Stations






























Interactive Weather Map
Tropical Storm Tracking
New forecast layout! Learn more

10-Day Weather Forecast

Advertisements
Track Severe Weather on mobile